sensor_id;sensor_type;location;lat;lon;timestamp;temperature;humidity
1337;DHT22;662;48.814;9.318;2023-04-29T00:01:53;14.60;81.50
1337;DHT22;662;48.814;9.318;2023-04-29T00:04:24;14.60;81.40
1337;DHT22;662;48.814;9.318;2023-04-29T00:06:49;14.60;81.30
1337;DHT22;662;48.814;9.318;2023-04-29T00:09:15;14.60;81.20
1337;DHT22;662;48.814;9.318;2023-04-29T00:11:41;14.60;81.20
1337;DHT22;662;48.814;9.318;2023-04-29T00:14:06;14.50;81.00
1337;DHT22;662;48.814;9.318;2023-04-29T00:16:32;14.50;80.90
1337;DHT22;662;48.814;9.318;2023-04-29T00:18:58;14.50;80.90
1337;DHT22;662;48.814;9.318;2023-04-29T00:21:24;14.50;81.00
1337;DHT22;662;48.814;9.318;2023-04-29T00:23:52;14.50;81.10
1337;DHT22;662;48.814;9.318;2023-04-29T00:26:17;14.50;81.20
1337;DHT22;662;48.814;9.318;2023-04-29T00:28:43;14.50;81.30
1337;DHT22;662;48.814;9.318;2023-04-29T00:31:09;14.50;81.30
1337;DHT22;662;48.814;9.318;2023-04-29T00:33:35;14.50;81.20
1337;DHT22;662;48.814;9.318;2023-04-29T00:36:01;14.50;81.10
1337;DHT22;662;48.814;9.318;2023-04-29T00:38:27;14.40;81.00
1337;DHT22;662;48.814;9.318;2023-04-29T00:40:53;14.50;80.90
1337;DHT22;662;48.814;9.318;2023-04-29T00:43:19;14.40;80.70
1337;DHT22;662;48.814;9.318;2023-04-29T00:45:45;14.40;80.70
1337;DHT22;662;48.814;9.318;2023-04-29T00:48:11;14.40;80.50
1337;DHT22;662;48.814;9.318;2023-04-29T00:50:40;14.40;80.50
1337;DHT22;662;48.814;9.318;2023-04-29T00:53:07;14.40;80.50
1337;DHT22;662;48.814;9.318;2023-04-29T00:55:33;14.40;80.50
1337;DHT22;662;48.814;9.318;2023-04-29T00:58:00;14.40;80.40
1337;DHT22;662;48.814;9.318;2023-04-29T01:00:27;14.30;80.30
1337;DHT22;662;48.814;9.318;2023-04-29T01:02:53;14.30;80.40
1337;DHT22;662;48.814;9.318;2023-04-29T01:05:22;14.30;80.80
1337;DHT22;662;48.814;9.318;2023-04-29T01:13:31;14.30;80.50
1337;DHT22;662;48.814;9.318;2023-04-29T01:16:02;14.30;80.50
1337;DHT22;662;48.814;9.318;2023-04-29T01:18:49;14.30;80.60
1337;DHT22;662;48.814;9.318;2023-04-29T01:21:18;14.30;80.50
1337;DHT22;662;48.814;9.318;2023-04-29T01:23:44;14.20;80.00
1337;DHT22;662;48.814;9.318;2023-04-29T01:26:10;14.20;80.00
1337;DHT22;662;48.814;9.318;2023-04-29T01:31:31;14.10;80.30
1337;DHT22;662;48.814;9.318;2023-04-29T01:34:15;14.10;80.60
1337;DHT22;662;48.814;9.318;2023-04-29T01:45:06;14.00;81.70
1337;DHT22;662;48.814;9.318;2023-04-29T01:47:32;14.10;81.90
1337;DHT22;662;48.814;9.318;2023-04-29T01:50:00;14.00;81.80
1337;DHT22;662;48.814;9.318;2023-04-29T01:52:27;14.00;81.70
1337;DHT22;662;48.814;9.318;2023-04-29T01:54:53;14.00;81.70
1337;DHT22;662;48.814;9.318;2023-04-29T01:57:18;14.00;81.60
1337;DHT22;662;48.814;9.318;2023-04-29T01:59:44;14.00;81.50
1337;DHT22;662;48.814;9.318;2023-04-29T02:02:09;14.00;81.50
1337;DHT22;662;48.814;9.318;2023-04-29T02:04:36;14.00;81.50
1337;DHT22;662;48.814;9.318;2023-04-29T02:07:01;14.00;81.50
1337;DHT22;662;48.814;9.318;2023-04-29T02:09:28;14.00;81.50
1337;DHT22;662;48.814;9.318;2023-04-29T02:11:54;14.00;81.40
1337;DHT22;662;48.814;9.318;2023-04-29T02:14:19;14.00;81.40
1337;DHT22;662;48.814;9.318;2023-04-29T02:16:45;14.00;81.30
1337;DHT22;662;48.814;9.318;2023-04-29T02:19:11;14.00;81.00
1337;DHT22;662;48.814;9.318;2023-04-29T02:21:37;14.00;80.80
1337;DHT22;662;48.814;9.318;2023-04-29T02:24:05;13.90;80.60
1337;DHT22;662;48.814;9.318;2023-04-29T02:26:32;13.90;80.50
1337;DHT22;662;48.814;9.318;2023-04-29T02:28:59;13.90;80.60
1337;DHT22;662;48.814;9.318;2023-04-29T02:31:24;13.90;80.70
1337;DHT22;662;48.814;9.318;2023-04-29T02:33:50;13.80;80.80
1337;DHT22;662;48.814;9.318;2023-04-29T02:36:16;13.80;80.80
1337;DHT22;662;48.814;9.318;2023-04-29T02:38:43;13.80;80.60
1337;DHT22;662;48.814;9.318;2023-04-29T02:41:08;13.80;80.40
1337;DHT22;662;48.814;9.318;2023-04-29T02:43:34;13.80;80.30
1337;DHT22;662;48.814;9.318;2023-04-29T02:46:00;13.70;79.90
1337;DHT22;662;48.814;9.318;2023-04-29T02:48:25;13.70;79.60
1337;DHT22;662;48.814;9.318;2023-04-29T02:50:51;13.60;79.40
1337;DHT22;662;48.814;9.318;2023-04-29T02:53:17;13.60;79.30
1337;DHT22;662;48.814;9.318;2023-04-29T02:55:43;13.60;79.20
1337;DHT22;662;48.814;9.318;2023-04-29T02:58:08;13.60;79.20
1337;DHT22;662;48.814;9.318;2023-04-29T03:00:34;13.50;79.00
1337;DHT22;662;48.814;9.318;2023-04-29T03:03:00;13.50;78.90
1337;DHT22;662;48.814;9.318;2023-04-29T03:05:26;13.40;78.60
1337;DHT22;662;48.814;9.318;2023-04-29T03:07:52;13.40;78.20
1337;DHT22;662;48.814;9.318;2023-04-29T03:10:17;13.30;78.30
1337;DHT22;662;48.814;9.318;2023-04-29T03:12:43;13.30;78.60
1337;DHT22;662;48.814;9.318;2023-04-29T03:15:09;13.30;78.70
1337;DHT22;662;48.814;9.318;2023-04-29T03:17:35;13.20;78.50
1337;DHT22;662;48.814;9.318;2023-04-29T03:20:01;13.20;78.70
1337;DHT22;662;48.814;9.318;2023-04-29T03:22:27;13.20;78.90
1337;DHT22;662;48.814;9.318;2023-04-29T03:24:53;13.20;78.80
1337;DHT22;662;48.814;9.318;2023-04-29T03:27:18;13.20;78.90
1337;DHT22;662;48.814;9.318;2023-04-29T03:29:44;13.20;78.80
1337;DHT22;662;48.814;9.318;2023-04-29T03:32:10;13.10;78.50
1337;DHT22;662;48.814;9.318;2023-04-29T03:34:35;13.10;78.40
1337;DHT22;662;48.814;9.318;2023-04-29T03:37:01;13.10;78.40
1337;DHT22;662;48.814;9.318;2023-04-29T03:39:27;13.10;78.00
1337;DHT22;662;48.814;9.318;2023-04-29T03:41:57;13.10;78.00
1337;DHT22;662;48.814;9.318;2023-04-29T03:44:24;13.00;77.80
1337;DHT22;662;48.814;9.318;2023-04-29T03:46:50;13.00;77.90
1337;DHT22;662;48.814;9.318;2023-04-29T03:49:15;13.00;77.90
1337;DHT22;662;48.814;9.318;2023-04-29T03:51:42;13.00;77.70
1337;DHT22;662;48.814;9.318;2023-04-29T03:54:10;13.00;77.60
1337;DHT22;662;48.814;9.318;2023-04-29T03:56:36;12.90;77.30
1337;DHT22;662;48.814;9.318;2023-04-29T03:59:01;12.90;77.10
1337;DHT22;662;48.814;9.318;2023-04-29T04:01:27;12.90;77.50
1337;DHT22;662;48.814;9.318;2023-04-29T04:03:53;12.80;76.60
1337;DHT22;662;48.814;9.318;2023-04-29T04:06:18;12.80;76.70
1337;DHT22;662;48.814;9.318;2023-04-29T04:08:44;12.80;76.70
1337;DHT22;662;48.814;9.318;2023-04-29T04:11:10;12.80;76.80
1337;DHT22;662;48.814;9.318;2023-04-29T04:13:37;12.80;76.90
1337;DHT22;662;48.814;9.318;2023-04-29T04:16:03;12.70;76.70
1337;DHT22;662;48.814;9.318;2023-04-29T04:18:29;12.70;76.80
1337;DHT22;662;48.814;9.318;2023-04-29T04:20:54;12.70;76.70
1337;DHT22;662;48.814;9.318;2023-04-29T04:23:20;12.70;76.90
1337;DHT22;662;48.814;9.318;2023-04-29T04:25:49;12.70;76.80
1337;DHT22;662;48.814;9.318;2023-04-29T04:28:14;12.60;76.40
1337;DHT22;662;48.814;9.318;2023-04-29T04:30:40;12.60;76.20
1337;DHT22;662;48.814;9.318;2023-04-29T04:33:07;12.50;76.40
1337;DHT22;662;48.814;9.318;2023-04-29T04:35:33;12.50;76.80
1337;DHT22;662;48.814;9.318;2023-04-29T04:37:58;12.50;77.10
1337;DHT22;662;48.814;9.318;2023-04-29T04:40:24;12.50;77.20
1337;DHT22;662;48.814;9.318;2023-04-29T04:42:49;12.50;77.20
1337;DHT22;662;48.814;9.318;2023-04-29T04:45:15;12.50;77.20
1337;DHT22;662;48.814;9.318;2023-04-29T04:47:41;12.50;77.30
1337;DHT22;662;48.814;9.318;2023-04-29T04:50:07;12.50;77.30
1337;DHT22;662;48.814;9.318;2023-04-29T04:52:33;12.50;77.20
1337;DHT22;662;48.814;9.318;2023-04-29T04:54:59;12.50;77.30
1337;DHT22;662;48.814;9.318;2023-04-29T04:57:25;12.50;77.30
1337;DHT22;662;48.814;9.318;2023-04-29T04:59:51;12.60;77.40
1337;DHT22;662;48.814;9.318;2023-04-29T05:02:16;12.60;77.40
1337;DHT22;662;48.814;9.318;2023-04-29T05:04:42;12.60;78.00
1337;DHT22;662;48.814;9.318;2023-04-29T05:07:07;12.60;77.30
1337;DHT22;662;48.814;9.318;2023-04-29T05:09:33;12.60;77.00
1337;DHT22;662;48.814;9.318;2023-04-29T05:11:59;12.60;77.00
1337;DHT22;662;48.814;9.318;2023-04-29T05:14:25;12.70;77.00
1337;DHT22;662;48.814;9.318;2023-04-29T05:16:51;12.70;76.90
1337;DHT22;662;48.814;9.318;2023-04-29T05:19:17;12.70;76.90
1337;DHT22;662;48.814;9.318;2023-04-29T05:21:43;12.70;77.00
1337;DHT22;662;48.814;9.318;2023-04-29T05:24:09;12.80;77.10
1337;DHT22;662;48.814;9.318;2023-04-29T05:26:34;12.80;77.10
1337;DHT22;662;48.814;9.318;2023-04-29T05:29:00;12.80;77.10
1337;DHT22;662;48.814;9.318;2023-04-29T05:31:26;12.90;77.20
1337;DHT22;662;48.814;9.318;2023-04-29T05:33:52;12.90;77.30
1337;DHT22;662;48.814;9.318;2023-04-29T05:36:18;12.90;77.30
1337;DHT22;662;48.814;9.318;2023-04-29T05:38:44;13.00;77.40
1337;DHT22;662;48.814;9.318;2023-04-29T05:41:10;13.00;77.40
1337;DHT22;662;48.814;9.318;2023-04-29T05:43:36;13.10;77.60
1337;DHT22;662;48.814;9.318;2023-04-29T05:46:01;13.10;77.60
1337;DHT22;662;48.814;9.318;2023-04-29T05:48:27;13.20;77.70
1337;DHT22;662;48.814;9.318;2023-04-29T05:50:54;13.30;77.70
1337;DHT22;662;48.814;9.318;2023-04-29T05:53:20;13.30;77.70
1337;DHT22;662;48.814;9.318;2023-04-29T05:55:46;13.40;77.80
1337;DHT22;662;48.814;9.318;2023-04-29T05:58:12;13.50;78.00
1337;DHT22;662;48.814;9.318;2023-04-29T06:00:38;13.50;78.00
1337;DHT22;662;48.814;9.318;2023-04-29T06:03:04;13.60;78.40
1337;DHT22;662;48.814;9.318;2023-04-29T06:05:29;13.60;78.70
1337;DHT22;662;48.814;9.318;2023-04-29T06:07:55;13.80;79.50
1337;DHT22;662;48.814;9.318;2023-04-29T06:10:21;13.90;80.00
1337;DHT22;662;48.814;9.318;2023-04-29T06:12:46;14.00;80.50
1337;DHT22;662;48.814;9.318;2023-04-29T06:15:15;14.20;81.10
1337;DHT22;662;48.814;9.318;2023-04-29T06:17:40;14.20;81.40
1337;DHT22;662;48.814;9.318;2023-04-29T06:20:07;14.20;81.70
1337;DHT22;662;48.814;9.318;2023-04-29T06:22:33;14.30;81.80
1337;DHT22;662;48.814;9.318;2023-04-29T06:24:59;14.40;82.00
1337;DHT22;662;48.814;9.318;2023-04-29T06:27:24;14.50;82.10
1337;DHT22;662;48.814;9.318;2023-04-29T06:29:50;14.60;82.10
1337;DHT22;662;48.814;9.318;2023-04-29T06:32:16;14.70;82.30
1337;DHT22;662;48.814;9.318;2023-04-29T06:34:41;14.80;82.30
1337;DHT22;662;48.814;9.318;2023-04-29T06:37:07;14.90;82.00
1337;DHT22;662;48.814;9.318;2023-04-29T06:39:33;15.00;81.70
1337;DHT22;662;48.814;9.318;2023-04-29T06:41:58;15.10;81.40
1337;DHT22;662;48.814;9.318;2023-04-29T06:44:24;15.20;81.10
1337;DHT22;662;48.814;9.318;2023-04-29T06:46:50;15.30;80.50
1337;DHT22;662;48.814;9.318;2023-04-29T06:49:17;15.50;80.10
1337;DHT22;662;48.814;9.318;2023-04-29T06:51:42;15.50;79.70
1337;DHT22;662;48.814;9.318;2023-04-29T06:54:08;15.60;79.40
1337;DHT22;662;48.814;9.318;2023-04-29T06:56:34;15.70;79.00
1337;DHT22;662;48.814;9.318;2023-04-29T06:59:00;15.80;78.40
1337;DHT22;662;48.814;9.318;2023-04-29T07:01:25;15.80;77.90
1337;DHT22;662;48.814;9.318;2023-04-29T07:03:51;15.80;77.60
1337;DHT22;662;48.814;9.318;2023-04-29T07:06:16;15.90;77.40
1337;DHT22;662;48.814;9.318;2023-04-29T07:08:42;15.90;76.60
1337;DHT22;662;48.814;9.318;2023-04-29T07:11:08;15.90;76.00
1337;DHT22;662;48.814;9.318;2023-04-29T07:13:33;15.90;75.80
1337;DHT22;662;48.814;9.318;2023-04-29T07:15:59;15.90;75.70
1337;DHT22;662;48.814;9.318;2023-04-29T07:18:25;15.90;75.40
1337;DHT22;662;48.814;9.318;2023-04-29T07:20:50;15.90;75.30
1337;DHT22;662;48.814;9.318;2023-04-29T07:23:17;15.90;75.40
1337;DHT22;662;48.814;9.318;2023-04-29T07:25:42;16.00;75.40
1337;DHT22;662;48.814;9.318;2023-04-29T07:28:08;16.10;75.50
1337;DHT22;662;48.814;9.318;2023-04-29T07:30:34;16.30;76.40
1337;DHT22;662;48.814;9.318;2023-04-29T07:32:59;16.40;75.30
1337;DHT22;662;48.814;9.318;2023-04-29T07:35:25;16.40;74.50
1337;DHT22;662;48.814;9.318;2023-04-29T07:37:51;16.40;74.10
1337;DHT22;662;48.814;9.318;2023-04-29T07:40:17;16.50;73.80
1337;DHT22;662;48.814;9.318;2023-04-29T07:42:43;16.50;73.40
1337;DHT22;662;48.814;9.318;2023-04-29T07:45:09;16.50;74.00
1337;DHT22;662;48.814;9.318;2023-04-29T07:47:34;16.60;73.30
1337;DHT22;662;48.814;9.318;2023-04-29T07:50:01;16.70;73.30
1337;DHT22;662;48.814;9.318;2023-04-29T07:52:27;16.80;73.00
1337;DHT22;662;48.814;9.318;2023-04-29T07:54:53;16.90;72.20
1337;DHT22;662;48.814;9.318;2023-04-29T07:57:21;16.90;71.70
1337;DHT22;662;48.814;9.318;2023-04-29T07:59:51;17.00;71.30
1337;DHT22;662;48.814;9.318;2023-04-29T08:02:17;17.10;71.00
1337;DHT22;662;48.814;9.318;2023-04-29T08:04:43;17.10;70.60
1337;DHT22;662;48.814;9.318;2023-04-29T08:07:08;17.10;70.40
1337;DHT22;662;48.814;9.318;2023-04-29T08:09:34;17.10;70.30
1337;DHT22;662;48.814;9.318;2023-04-29T08:12:00;17.10;69.90
1337;DHT22;662;48.814;9.318;2023-04-29T08:14:26;17.10;69.90
1337;DHT22;662;48.814;9.318;2023-04-29T08:16:52;17.20;69.80
1337;DHT22;662;48.814;9.318;2023-04-29T08:19:19;17.20;69.60
1337;DHT22;662;48.814;9.318;2023-04-29T08:21:46;17.10;69.20
1337;DHT22;662;48.814;9.318;2023-04-29T08:24:12;17.10;68.80
1337;DHT22;662;48.814;9.318;2023-04-29T08:26:39;17.00;68.60
1337;DHT22;662;48.814;9.318;2023-04-29T08:29:05;16.90;68.50
1337;DHT22;662;48.814;9.318;2023-04-29T08:31:31;16.80;68.50
1337;DHT22;662;48.814;9.318;2023-04-29T08:33:57;16.80;68.80
1337;DHT22;662;48.814;9.318;2023-04-29T08:36:23;16.80;68.90
1337;DHT22;662;48.814;9.318;2023-04-29T08:38:48;16.80;68.90
1337;DHT22;662;48.814;9.318;2023-04-29T08:41:17;16.70;68.80
1337;DHT22;662;48.814;9.318;2023-04-29T08:43:42;16.70;68.70
1337;DHT22;662;48.814;9.318;2023-04-29T08:46:08;16.80;68.80
1337;DHT22;662;48.814;9.318;2023-04-29T08:48:36;16.70;68.80
1337;DHT22;662;48.814;9.318;2023-04-29T08:51:02;16.80;68.90
1337;DHT22;662;48.814;9.318;2023-04-29T08:53:28;16.80;68.80
1337;DHT22;662;48.814;9.318;2023-04-29T08:55:54;16.90;68.80
1337;DHT22;662;48.814;9.318;2023-04-29T08:58:24;17.00;68.80
1337;DHT22;662;48.814;9.318;2023-04-29T09:00:50;17.20;68.80
1337;DHT22;662;48.814;9.318;2023-04-29T09:03:26;17.30;68.20
1337;DHT22;662;48.814;9.318;2023-04-29T09:05:55;17.40;67.80
1337;DHT22;662;48.814;9.318;2023-04-29T09:08:23;17.50;67.20
1337;DHT22;662;48.814;9.318;2023-04-29T09:10:52;17.70;66.70
1337;DHT22;662;48.814;9.318;2023-04-29T09:13:27;17.80;66.30
1337;DHT22;662;48.814;9.318;2023-04-29T09:15:54;17.90;65.80
1337;DHT22;662;48.814;9.318;2023-04-29T09:21:18;18.10;65.00
1337;DHT22;662;48.814;9.318;2023-04-29T09:23:52;18.10;64.40
1337;DHT22;662;48.814;9.318;2023-04-29T09:26:18;18.10;64.00
1337;DHT22;662;48.814;9.318;2023-04-29T09:28:45;18.20;63.90
1337;DHT22;662;48.814;9.318;2023-04-29T09:31:12;18.40;64.10
1337;DHT22;662;48.814;9.318;2023-04-29T09:33:55;18.80;64.10
1337;DHT22;662;48.814;9.318;2023-04-29T09:39:07;19.90;60.90
1337;DHT22;662;48.814;9.318;2023-04-29T09:41:57;20.10;59.90
1337;DHT22;662;48.814;9.318;2023-04-29T09:44:31;20.30;59.10
1337;DHT22;662;48.814;9.318;2023-04-29T09:47:00;20.50;58.40
1337;DHT22;662;48.814;9.318;2023-04-29T09:49:32;20.50;57.80
1337;DHT22;662;48.814;9.318;2023-04-29T09:52:01;20.50;57.60
1337;DHT22;662;48.814;9.318;2023-04-29T09:54:31;20.70;57.80
1337;DHT22;662;48.814;9.318;2023-04-29T09:56:58;21.70;57.10
1337;DHT22;662;48.814;9.318;2023-04-29T09:59:24;22.40;55.00
1337;DHT22;662;48.814;9.318;2023-04-29T10:01:55;22.70;53.20
1337;DHT22;662;48.814;9.318;2023-04-29T10:04:23;23.00;52.60
1337;DHT22;662;48.814;9.318;2023-04-29T10:06:50;23.00;52.30
1337;DHT22;662;48.814;9.318;2023-04-29T10:09:17;22.90;51.70
1337;DHT22;662;48.814;9.318;2023-04-29T10:11:44;22.80;51.40
1337;DHT22;662;48.814;9.318;2023-04-29T10:14:15;22.60;51.60
1337;DHT22;662;48.814;9.318;2023-04-29T10:16:53;22.50;51.70
1337;DHT22;662;48.814;9.318;2023-04-29T10:19:33;22.40;52.20
1337;DHT22;662;48.814;9.318;2023-04-29T10:22:16;22.20;52.20
1337;DHT22;662;48.814;9.318;2023-04-29T10:24:44;22.00;52.00
1337;DHT22;662;48.814;9.318;2023-04-29T10:27:12;22.10;52.50
1337;DHT22;662;48.814;9.318;2023-04-29T10:29:39;22.50;52.30
1337;DHT22;662;48.814;9.318;2023-04-29T10:32:09;23.00;52.00
1337;DHT22;662;48.814;9.318;2023-04-29T10:34:37;23.20;51.00
1337;DHT22;662;48.814;9.318;2023-04-29T10:37:11;23.20;50.10
1337;DHT22;662;48.814;9.318;2023-04-29T10:39:46;23.00;49.10
1337;DHT22;662;48.814;9.318;2023-04-29T10:42:41;22.60;49.30
1337;DHT22;662;48.814;9.318;2023-04-29T10:45:22;22.90;49.90
1337;DHT22;662;48.814;9.318;2023-04-29T10:53:12;23.60;48.50
1337;DHT22;662;48.814;9.318;2023-04-29T10:55:39;23.80;47.80
1337;DHT22;662;48.814;9.318;2023-04-29T11:01:00;23.90;47.40
1337;DHT22;662;48.814;9.318;2023-04-29T11:03:45;23.70;47.30
1337;DHT22;662;48.814;9.318;2023-04-29T11:06:11;23.40;47.70
1337;DHT22;662;48.814;9.318;2023-04-29T11:08:37;23.10;47.90
1337;DHT22;662;48.814;9.318;2023-04-29T11:11:06;22.70;48.30
1337;DHT22;662;48.814;9.318;2023-04-29T11:13:32;22.40;49.10
1337;DHT22;662;48.814;9.318;2023-04-29T11:16:06;22.20;49.70
1337;DHT22;662;48.814;9.318;2023-04-29T11:18:33;22.20;50.10
1337;DHT22;662;48.814;9.318;2023-04-29T11:23:37;22.60;49.50
1337;DHT22;662;48.814;9.318;2023-04-29T11:26:03;22.70;48.60
1337;DHT22;662;48.814;9.318;2023-04-29T11:28:30;22.60;48.30
1337;DHT22;662;48.814;9.318;2023-04-29T11:30:56;22.50;48.10
1337;DHT22;662;48.814;9.318;2023-04-29T11:33:23;22.60;48.70
1337;DHT22;662;48.814;9.318;2023-04-29T11:35:48;23.00;49.00
1337;DHT22;662;48.814;9.318;2023-04-29T11:38:14;23.10;48.00
1337;DHT22;662;48.814;9.318;2023-04-29T11:40:49;23.40;47.60
1337;DHT22;662;48.814;9.318;2023-04-29T11:43:18;23.60;47.30
1337;DHT22;662;48.814;9.318;2023-04-29T11:45:47;23.60;47.00
1337;DHT22;662;48.814;9.318;2023-04-29T11:48:20;23.40;47.10
1337;DHT22;662;48.814;9.318;2023-04-29T11:50:47;23.40;47.40
1337;DHT22;662;48.814;9.318;2023-04-29T11:53:14;23.30;47.80
1337;DHT22;662;48.814;9.318;2023-04-29T11:55:44;23.40;48.10
1337;DHT22;662;48.814;9.318;2023-04-29T11:58:10;23.40;47.70
1337;DHT22;662;48.814;9.318;2023-04-29T12:00:36;23.40;47.30
1337;DHT22;662;48.814;9.318;2023-04-29T12:03:08;23.20;47.30
1337;DHT22;662;48.814;9.318;2023-04-29T12:05:37;23.00;48.10
1337;DHT22;662;48.814;9.318;2023-04-29T12:08:05;22.80;48.00
1337;DHT22;662;48.814;9.318;2023-04-29T12:10:35;22.70;48.30
1337;DHT22;662;48.814;9.318;2023-04-29T12:13:01;22.60;48.30
1337;DHT22;662;48.814;9.318;2023-04-29T12:15:28;23.00;49.00
1337;DHT22;662;48.814;9.318;2023-04-29T12:17:54;23.40;48.20
1337;DHT22;662;48.814;9.318;2023-04-29T12:20:20;23.60;47.40
1337;DHT22;662;48.814;9.318;2023-04-29T12:22:46;23.90;47.40
1337;DHT22;662;48.814;9.318;2023-04-29T12:25:12;24.40;47.40
1337;DHT22;662;48.814;9.318;2023-04-29T12:27:39;25.00;45.80
1337;DHT22;662;48.814;9.318;2023-04-29T12:30:09;25.40;44.80
1337;DHT22;662;48.814;9.318;2023-04-29T12:32:34;25.60;43.70
1337;DHT22;662;48.814;9.318;2023-04-29T12:35:01;25.80;43.60
1337;DHT22;662;48.814;9.318;2023-04-29T12:37:27;25.80;43.30
1337;DHT22;662;48.814;9.318;2023-04-29T12:39:56;25.50;43.10
1337;DHT22;662;48.814;9.318;2023-04-29T12:42:21;25.30;43.20
1337;DHT22;662;48.814;9.318;2023-04-29T12:44:47;25.60;42.90
1337;DHT22;662;48.814;9.318;2023-04-29T12:47:14;26.10;43.00
1337;DHT22;662;48.814;9.318;2023-04-29T12:49:45;26.50;42.40
1337;DHT22;662;48.814;9.318;2023-04-29T12:52:11;26.60;41.10
1337;DHT22;662;48.814;9.318;2023-04-29T12:54:38;26.70;40.70
1337;DHT22;662;48.814;9.318;2023-04-29T12:57:06;26.60;40.70
1337;DHT22;662;48.814;9.318;2023-04-29T12:59:32;26.50;41.40
1337;DHT22;662;48.814;9.318;2023-04-29T13:01:57;26.40;41.60
1337;DHT22;662;48.814;9.318;2023-04-29T13:04:23;26.30;41.50
1337;DHT22;662;48.814;9.318;2023-04-29T13:06:49;26.30;41.70
1337;DHT22;662;48.814;9.318;2023-04-29T13:09:18;26.10;41.40
1337;DHT22;662;48.814;9.318;2023-04-29T13:11:44;25.90;41.90
1337;DHT22;662;48.814;9.318;2023-04-29T13:14:09;25.70;42.00
1337;DHT22;662;48.814;9.318;2023-04-29T13:16:35;25.30;42.40
1337;DHT22;662;48.814;9.318;2023-04-29T13:19:01;24.90;42.80
1337;DHT22;662;48.814;9.318;2023-04-29T13:21:27;24.50;43.30
1337;DHT22;662;48.814;9.318;2023-04-29T13:23:53;24.00;43.70
1337;DHT22;662;48.814;9.318;2023-04-29T13:26:19;23.70;44.60
1337;DHT22;662;48.814;9.318;2023-04-29T13:28:45;23.40;45.40
1337;DHT22;662;48.814;9.318;2023-04-29T13:31:11;23.20;45.70
1337;DHT22;662;48.814;9.318;2023-04-29T13:33:36;23.10;46.10
1337;DHT22;662;48.814;9.318;2023-04-29T13:36:04;22.90;46.30
1337;DHT22;662;48.814;9.318;2023-04-29T13:38:30;22.90;46.80
1337;DHT22;662;48.814;9.318;2023-04-29T13:40:56;23.20;47.00
1337;DHT22;662;48.814;9.318;2023-04-29T13:43:22;23.70;47.00
1337;DHT22;662;48.814;9.318;2023-04-29T13:45:47;24.30;46.50
1337;DHT22;662;48.814;9.318;2023-04-29T13:48:13;24.80;45.50
1337;DHT22;662;48.814;9.318;2023-04-29T13:50:39;25.20;44.40
1337;DHT22;662;48.814;9.318;2023-04-29T13:53:05;25.50;43.80
1337;DHT22;662;48.814;9.318;2023-04-29T13:55:32;25.90;43.20
1337;DHT22;662;48.814;9.318;2023-04-29T13:57:59;26.20;42.20
1337;DHT22;662;48.814;9.318;2023-04-29T14:00:26;26.30;41.20
1337;DHT22;662;48.814;9.318;2023-04-29T14:02:51;26.50;41.10
1337;DHT22;662;48.814;9.318;2023-04-29T14:05:17;26.50;40.20
1337;DHT22;662;48.814;9.318;2023-04-29T14:07:43;26.40;40.20
1337;DHT22;662;48.814;9.318;2023-04-29T14:10:10;26.40;40.40
1337;DHT22;662;48.814;9.318;2023-04-29T14:12:35;26.40;40.70
1337;DHT22;662;48.814;9.318;2023-04-29T14:15:01;26.30;40.80
1337;DHT22;662;48.814;9.318;2023-04-29T14:17:27;26.30;40.60
1337;DHT22;662;48.814;9.318;2023-04-29T14:19:52;26.10;40.50
1337;DHT22;662;48.814;9.318;2023-04-29T14:22:18;26.10;40.40
1337;DHT22;662;48.814;9.318;2023-04-29T14:24:43;25.90;40.30
1337;DHT22;662;48.814;9.318;2023-04-29T14:27:09;25.70;40.80
1337;DHT22;662;48.814;9.318;2023-04-29T14:29:35;25.80;41.10
1337;DHT22;662;48.814;9.318;2023-04-29T14:32:00;26.00;40.80
1337;DHT22;662;48.814;9.318;2023-04-29T14:34:26;26.10;40.30
1337;DHT22;662;48.814;9.318;2023-04-29T14:36:52;26.10;40.00
1337;DHT22;662;48.814;9.318;2023-04-29T14:39:17;25.90;39.50
1337;DHT22;662;48.814;9.318;2023-04-29T14:41:43;25.80;40.00
1337;DHT22;662;48.814;9.318;2023-04-29T14:44:09;25.50;40.20
1337;DHT22;662;48.814;9.318;2023-04-29T14:46:35;25.50;40.90
1337;DHT22;662;48.814;9.318;2023-04-29T14:49:00;25.30;40.30
1337;DHT22;662;48.814;9.318;2023-04-29T14:51:26;25.30;40.50
1337;DHT22;662;48.814;9.318;2023-04-29T14:53:52;25.10;40.30
1337;DHT22;662;48.814;9.318;2023-04-29T14:56:18;24.70;40.70
1337;DHT22;662;48.814;9.318;2023-04-29T14:58:43;24.40;41.20
1337;DHT22;662;48.814;9.318;2023-04-29T15:01:09;24.00;41.60
1337;DHT22;662;48.814;9.318;2023-04-29T15:03:35;23.70;42.00
1337;DHT22;662;48.814;9.318;2023-04-29T15:06:01;23.30;42.00
1337;DHT22;662;48.814;9.318;2023-04-29T15:08:28;23.00;42.70
1337;DHT22;662;48.814;9.318;2023-04-29T15:10:54;22.70;43.20
1337;DHT22;662;48.814;9.318;2023-04-29T15:13:20;22.50;44.00
1337;DHT22;662;48.814;9.318;2023-04-29T15:15:46;22.20;44.30
1337;DHT22;662;48.814;9.318;2023-04-29T15:18:12;21.90;45.00
1337;DHT22;662;48.814;9.318;2023-04-29T15:20:37;21.70;45.60
1337;DHT22;662;48.814;9.318;2023-04-29T15:23:04;21.50;46.20
1337;DHT22;662;48.814;9.318;2023-04-29T15:25:30;21.40;46.50
1337;DHT22;662;48.814;9.318;2023-04-29T15:27:57;21.20;47.00
1337;DHT22;662;48.814;9.318;2023-04-29T15:30:26;21.00;47.30
1337;DHT22;662;48.814;9.318;2023-04-29T15:32:52;20.80;47.70
1337;DHT22;662;48.814;9.318;2023-04-29T15:35:18;20.70;48.10
1337;DHT22;662;48.814;9.318;2023-04-29T15:37:44;20.60;48.40
1337;DHT22;662;48.814;9.318;2023-04-29T15:40:10;20.60;48.70
1337;DHT22;662;48.814;9.318;2023-04-29T15:42:36;20.50;48.80
1337;DHT22;662;48.814;9.318;2023-04-29T15:45:02;20.50;48.80
1337;DHT22;662;48.814;9.318;2023-04-29T15:47:27;20.40;49.00
1337;DHT22;662;48.814;9.318;2023-04-29T15:49:53;20.30;49.30
1337;DHT22;662;48.814;9.318;2023-04-29T15:52:21;20.30;49.60
1337;DHT22;662;48.814;9.318;2023-04-29T15:54:47;20.30;49.80
1337;DHT22;662;48.814;9.318;2023-04-29T15:57:13;20.20;49.90
1337;DHT22;662;48.814;9.318;2023-04-29T15:59:38;20.20;50.00
1337;DHT22;662;48.814;9.318;2023-04-29T16:02:04;20.10;50.30
1337;DHT22;662;48.814;9.318;2023-04-29T16:04:35;20.00;50.40
1337;DHT22;662;48.814;9.318;2023-04-29T16:07:01;20.00;50.40
1337;DHT22;662;48.814;9.318;2023-04-29T16:09:31;19.90;50.50
1337;DHT22;662;48.814;9.318;2023-04-29T16:11:57;19.80;50.60
1337;DHT22;662;48.814;9.318;2023-04-29T16:14:23;19.70;50.60
1337;DHT22;662;48.814;9.318;2023-04-29T16:16:48;19.60;50.80
1337;DHT22;662;48.814;9.318;2023-04-29T16:19:14;19.50;50.90
1337;DHT22;662;48.814;9.318;2023-04-29T16:21:40;19.40;51.20
1337;DHT22;662;48.814;9.318;2023-04-29T16:24:11;19.30;51.50
1337;DHT22;662;48.814;9.318;2023-04-29T16:26:37;19.20;51.60
1337;DHT22;662;48.814;9.318;2023-04-29T16:29:05;19.10;51.80
1337;DHT22;662;48.814;9.318;2023-04-29T16:31:31;19.00;52.00
1337;DHT22;662;48.814;9.318;2023-04-29T16:33:56;19.00;52.30
1337;DHT22;662;48.814;9.318;2023-04-29T16:36:23;18.90;52.50
1337;DHT22;662;48.814;9.318;2023-04-29T16:38:49;18.80;52.60
1337;DHT22;662;48.814;9.318;2023-04-29T16:41:16;18.70;52.80
1337;DHT22;662;48.814;9.318;2023-04-29T16:43:41;18.70;53.10
1337;DHT22;662;48.814;9.318;2023-04-29T16:46:08;18.60;53.30
1337;DHT22;662;48.814;9.318;2023-04-29T16:48:34;18.50;53.30